sensor_id;sensor_type;location;lat;lon;timestamp;P1;P2;P0
54869;PMS5003;40756;-37.950;145.008;2024-01-16T00:00:11;1;1;
54869;PMS5003;40756;-37.950;145.008;2024-01-16T00:02:44;1;1;
54869;PMS5003;40756;-37.950;145.008;2024-01-16T00:05:14;0;0;
54869;PMS5003;40756;-37.950;145.008;2024-01-16T00:07:47;1;1;
54869;PMS5003;40756;-37.950;145.008;2024-01-16T00:10:17;1;0;
54869;PMS5003;40756;-37.950;145.008;2024-01-16T00:12:47;6;6;
54869;PMS5003;40756;-37.950;145.008;2024-01-16T00:15:19;2;1;
54869;PMS5003;40756;-37.950;145.008;2024-01-16T00:17:49;2;2;
54869;PMS5003;40756;-37.950;145.008;2024-01-16T00:20:19;4;4;
54869;PMS5003;40756;-37.950;145.008;2024-01-16T00:22:50;3;3;
54869;PMS5003;40756;-37.950;145.008;2024-01-16T00:25:21;3;3;
54869;PMS5003;40756;-37.950;145.008;2024-01-16T00:27:55;2;1;
54869;PMS5003;40756;-37.950;145.008;2024-01-16T00:30:25;1;1;
54869;PMS5003;40756;-37.950;145.008;2024-01-16T00:32:58;1;1;
54869;PMS5003;40756;-37.950;145.008;2024-01-16T00:35:27;2;2;
54869;PMS5003;40756;-37.950;145.008;2024-01-16T00:38:00;2;2;
54869;PMS5003;40756;-37.950;145.008;2024-01-16T00:40:32;0;0;
54869;PMS5003;40756;-37.950;145.008;2024-01-16T00:43:02;2;2;
54869;PMS5003;40756;-37.950;145.008;2024-01-16T00:45:32;2;2;
54869;PMS5003;40756;-37.950;145.008;2024-01-16T00:48:03;1;1;
54869;PMS5003;40756;-37.950;145.008;2024-01-16T00:50:33;1;1;
54869;PMS5003;40756;-37.950;145.008;2024-01-16T00:53:06;0;0;
54869;PMS5003;40756;-37.950;145.008;2024-01-16T00:55:36;1;1;
54869;PMS5003;40756;-37.950;145.008;2024-01-16T00:58:08;0;0;
54869;PMS5003;40756;-37.950;145.008;2024-01-16T01:00:38;0;0;
54869;PMS5003;40756;-37.950;145.008;2024-01-16T01:03:18;0;0;
54869;PMS5003;40756;-37.950;145.008;2024-01-16T01:05:49;1;0;
54869;PMS5003;40756;-37.950;145.008;2024-01-16T01:08:21;1;1;
54869;PMS5003;40756;-37.950;145.008;2024-01-16T01:10:55;0;0;
54869;PMS5003;40756;-37.950;145.008;2024-01-16T01:13:26;1;1;
54869;PMS5003;40756;-37.950;145.008;2024-01-16T01:15:59;7;6;
54869;PMS5003;40756;-37.950;145.008;2024-01-16T01:18:31;5;5;
54869;PMS5003;40756;-37.950;145.008;2024-01-16T01:21:02;6;6;
54869;PMS5003;40756;-37.950;145.008;2024-01-16T01:23:36;3;3;
54869;PMS5003;40756;-37.950;145.008;2024-01-16T01:26:11;1;0;
54869;PMS5003;40756;-37.950;145.008;2024-01-16T01:28:42;1;1;
54869;PMS5003;40756;-37.950;145.008;2024-01-16T01:31:13;2;0;
54869;PMS5003;40756;-37.950;145.008;2024-01-16T01:33:43;2;1;
54869;PMS5003;40756;-37.950;145.008;2024-01-16T01:36:14;1;1;
54869;PMS5003;40756;-37.950;145.008;2024-01-16T01:38:47;0;0;
54869;PMS5003;40756;-37.950;145.008;2024-01-16T01:41:18;1;1;
54869;PMS5003;40756;-37.950;145.008;2024-01-16T01:43:57;2;1;
54869;PMS5003;40756;-37.950;145.008;2024-01-16T01:46:27;0;0;
54869;PMS5003;40756;-37.950;145.008;2024-01-16T01:49:00;1;1;
54869;PMS5003;40756;-37.950;145.008;2024-01-16T01:51:31;0;0;
54869;PMS5003;40756;-37.950;145.008;2024-01-16T01:54:03;1;1;
54869;PMS5003;40756;-37.950;145.008;2024-01-16T01:56:34;0;0;
54869;PMS5003;40756;-37.950;145.008;2024-01-16T01:59:04;1;1;
54869;PMS5003;40756;-37.950;145.008;2024-01-16T02:01:37;0;0;
54869;PMS5003;40756;-37.950;145.008;2024-01-16T02:04:10;0;0;
54869;PMS5003;40756;-37.950;145.008;2024-01-16T02:06:44;7;7;
54869;PMS5003;40756;-37.950;145.008;2024-01-16T02:09:15;3;3;
54869;PMS5003;40756;-37.950;145.008;2024-01-16T02:11:46;1;0;
54869;PMS5003;40756;-37.950;145.008;2024-01-16T02:14:16;1;1;
54869;PMS5003;40756;-37.950;145.008;2024-01-16T02:16:52;1;1;
54869;PMS5003;40756;-37.950;145.008;2024-01-16T02:19:23;0;0;
54869;PMS5003;40756;-37.950;145.008;2024-01-16T02:21:56;1;1;
54869;PMS5003;40756;-37.950;145.008;2024-01-16T02:24:34;0;0;
54869;PMS5003;40756;-37.950;145.008;2024-01-16T02:27:05;0;0;
54869;PMS5003;40756;-37.950;145.008;2024-01-16T02:29:41;0;0;
54869;PMS5003;40756;-37.950;145.008;2024-01-16T02:32:16;0;0;
54869;PMS5003;40756;-37.950;145.008;2024-01-16T02:34:47;0;0;
54869;PMS5003;40756;-37.950;145.008;2024-01-16T02:37:18;1;0;
54869;PMS5003;40756;-37.950;145.008;2024-01-16T02:39:50;1;1;
54869;PMS5003;40756;-37.950;145.008;2024-01-16T02:42:23;0;0;
54869;PMS5003;40756;-37.950;145.008;2024-01-16T02:44:54;1;1;
54869;PMS5003;40756;-37.950;145.008;2024-01-16T02:47:24;1;1;
54869;PMS5003;40756;-37.950;145.008;2024-01-16T02:49:59;0;0;
54869;PMS5003;40756;-37.950;145.008;2024-01-16T02:52:33;1;1;
54869;PMS5003;40756;-37.950;145.008;2024-01-16T02:55:05;0;0;
54869;PMS5003;40756;-37.950;145.008;2024-01-16T02:57:36;1;1;
54869;PMS5003;40756;-37.950;145.008;2024-01-16T03:00:08;0;0;
54869;PMS5003;40756;-37.950;145.008;2024-01-16T03:02:40;0;0;
54869;PMS5003;40756;-37.950;145.008;2024-01-16T03:05:13;0;0;
54869;PMS5003;40756;-37.950;145.008;2024-01-16T03:07:44;0;0;
54869;PMS5003;40756;-37.950;145.008;2024-01-16T03:10:15;0;0;
54869;PMS5003;40756;-37.950;145.008;2024-01-16T03:12:48;1;1;
54869;PMS5003;40756;-37.950;145.008;2024-01-16T03:15:18;1;1;
54869;PMS5003;40756;-37.950;145.008;2024-01-16T03:17:49;18;18;
54869;PMS5003;40756;-37.950;145.008;2024-01-16T03:20:20;24;24;
54869;PMS5003;40756;-37.950;145.008;2024-01-16T03:22:51;20;20;
54869;PMS5003;40756;-37.950;145.008;2024-01-16T03:25:23;15;15;
54869;PMS5003;40756;-37.950;145.008;2024-01-16T03:27:57;20;20;
54869;PMS5003;40756;-37.950;145.008;2024-01-16T03:30:28;57;57;
54869;PMS5003;40756;-37.950;145.008;2024-01-16T03:33:05;33;33;
54869;PMS5003;40756;-37.950;145.008;2024-01-16T03:35:35;47;47;
54869;PMS5003;40756;-37.950;145.008;2024-01-16T03:38:06;30;30;
54869;PMS5003;40756;-37.950;145.008;2024-01-16T03:40:37;6;6;
54869;PMS5003;40756;-37.950;145.008;2024-01-16T03:43:07;1;0;
54869;PMS5003;40756;-37.950;145.008;2024-01-16T03:45:39;0;0;
54869;PMS5003;40756;-37.950;145.008;2024-01-16T03:48:12;0;0;
54869;PMS5003;40756;-37.950;145.008;2024-01-16T03:50:43;6;6;
54869;PMS5003;40756;-37.950;145.008;2024-01-16T03:53:14;1;1;
54869;PMS5003;40756;-37.950;145.008;2024-01-16T03:55:43;1;0;
54869;PMS5003;40756;-37.950;145.008;2024-01-16T03:58:16;0;0;
54869;PMS5003;40756;-37.950;145.008;2024-01-16T04:00:46;0;0;
54869;PMS5003;40756;-37.950;145.008;2024-01-16T04:03:20;1;1;
54869;PMS5003;40756;-37.950;145.008;2024-01-16T04:05:52;1;1;
54869;PMS5003;40756;-37.950;145.008;2024-01-16T04:08:23;1;0;
54869;PMS5003;40756;-37.950;145.008;2024-01-16T04:10:54;1;1;
54869;PMS5003;40756;-37.950;145.008;2024-01-16T04:13:25;2;2;
54869;PMS5003;40756;-37.950;145.008;2024-01-16T04:15:56;1;1;
54869;PMS5003;40756;-37.950;145.008;2024-01-16T04:18:27;1;1;
54869;PMS5003;40756;-37.950;145.008;2024-01-16T04:20:57;1;1;
54869;PMS5003;40756;-37.950;145.008;2024-01-16T04:23:27;1;1;
54869;PMS5003;40756;-37.950;145.008;2024-01-16T04:25:58;1;1;
54869;PMS5003;40756;-37.950;145.008;2024-01-16T04:28:29;0;0;
54869;PMS5003;40756;-37.950;145.008;2024-01-16T04:31:00;0;0;
54869;PMS5003;40756;-37.950;145.008;2024-01-16T04:33:30;1;1;
54869;PMS5003;40756;-37.950;145.008;2024-01-16T04:36:01;12;12;
54869;PMS5003;40756;-37.950;145.008;2024-01-16T04:38:30;27;27;
54869;PMS5003;40756;-37.950;145.008;2024-01-16T04:41:01;18;18;
54869;PMS5003;40756;-37.950;145.008;2024-01-16T04:43:36;39;39;
54869;PMS5003;40756;-37.950;145.008;2024-01-16T04:46:05;16;16;
54869;PMS5003;40756;-37.950;145.008;2024-01-16T04:48:34;12;12;
54869;PMS5003;40756;-37.950;145.008;2024-01-16T04:51:03;4;4;
54869;PMS5003;40756;-37.950;145.008;2024-01-16T04:53:33;6;6;
54869;PMS5003;40756;-37.950;145.008;2024-01-16T04:56:04;8;8;
54869;PMS5003;40756;-37.950;145.008;2024-01-16T04:58:33;4;4;
54869;PMS5003;40756;-37.950;145.008;2024-01-16T05:01:02;1;1;
54869;PMS5003;40756;-37.950;145.008;2024-01-16T05:03:31;0;0;
54869;PMS5003;40756;-37.950;145.008;2024-01-16T05:06:01;1;0;
54869;PMS5003;40756;-37.950;145.008;2024-01-16T05:08:30;0;0;
54869;PMS5003;40756;-37.950;145.008;2024-01-16T05:10:59;0;0;
54869;PMS5003;40756;-37.950;145.008;2024-01-16T05:13:28;1;1;
54869;PMS5003;40756;-37.950;145.008;2024-01-16T05:15:57;0;0;
54869;PMS5003;40756;-37.950;145.008;2024-01-16T05:18:26;1;1;
54869;PMS5003;40756;-37.950;145.008;2024-01-16T05:20:55;1;1;
54869;PMS5003;40756;-37.950;145.008;2024-01-16T05:23:25;1;1;
54869;PMS5003;40756;-37.950;145.008;2024-01-16T05:25:54;2;2;
54869;PMS5003;40756;-37.950;145.008;2024-01-16T05:28:23;1;1;
54869;PMS5003;40756;-37.950;145.008;2024-01-16T05:30:53;1;1;
54869;PMS5003;40756;-37.950;145.008;2024-01-16T05:33:22;1;1;
54869;PMS5003;40756;-37.950;145.008;2024-01-16T05:35:51;2;2;
54869;PMS5003;40756;-37.950;145.008;2024-01-16T05:38:20;3;3;
54869;PMS5003;40756;-37.950;145.008;2024-01-16T05:40:50;1;1;
54869;PMS5003;40756;-37.950;145.008;2024-01-16T05:43:20;1;0;
54869;PMS5003;40756;-37.950;145.008;2024-01-16T05:45:49;0;0;
54869;PMS5003;40756;-37.950;145.008;2024-01-16T05:48:18;1;1;
54869;PMS5003;40756;-37.950;145.008;2024-01-16T05:50:47;1;1;
54869;PMS5003;40756;-37.950;145.008;2024-01-16T05:53:16;1;1;
54869;PMS5003;40756;-37.950;145.008;2024-01-16T05:55:45;1;1;
54869;PMS5003;40756;-37.950;145.008;2024-01-16T05:58:15;2;2;
54869;PMS5003;40756;-37.950;145.008;2024-01-16T06:00:44;1;1;
54869;PMS5003;40756;-37.950;145.008;2024-01-16T06:03:14;2;1;
54869;PMS5003;40756;-37.950;145.008;2024-01-16T06:05:44;0;0;
54869;PMS5003;40756;-37.950;145.008;2024-01-16T06:08:14;2;2;
54869;PMS5003;40756;-37.950;145.008;2024-01-16T06:10:43;1;1;
54869;PMS5003;40756;-37.950;145.008;2024-01-16T06:13:13;0;0;
54869;PMS5003;40756;-37.950;145.008;2024-01-16T06:15:43;0;0;
54869;PMS5003;40756;-37.950;145.008;2024-01-16T06:18:13;1;1;
54869;PMS5003;40756;-37.950;145.008;2024-01-16T06:20:43;1;1;
54869;PMS5003;40756;-37.950;145.008;2024-01-16T06:23:12;1;1;
54869;PMS5003;40756;-37.950;145.008;2024-01-16T06:25:41;1;1;
54869;PMS5003;40756;-37.950;145.008;2024-01-16T06:28:11;2;2;
54869;PMS5003;40756;-37.950;145.008;2024-01-16T06:30:40;1;1;
54869;PMS5003;40756;-37.950;145.008;2024-01-16T06:33:10;2;2;
54869;PMS5003;40756;-37.950;145.008;2024-01-16T06:35:39;1;1;
54869;PMS5003;40756;-37.950;145.008;2024-01-16T06:38:08;2;1;
54869;PMS5003;40756;-37.950;145.008;2024-01-16T06:40:37;1;1;
54869;PMS5003;40756;-37.950;145.008;2024-01-16T06:43:06;2;2;
54869;PMS5003;40756;-37.950;145.008;2024-01-16T06:45:35;1;1;
54869;PMS5003;40756;-37.950;145.008;2024-01-16T06:48:05;1;1;
54869;PMS5003;40756;-37.950;145.008;2024-01-16T06:50:35;1;1;
54869;PMS5003;40756;-37.950;145.008;2024-01-16T06:53:04;1;1;
54869;PMS5003;40756;-37.950;145.008;2024-01-16T06:55:33;2;2;
54869;PMS5003;40756;-37.950;145.008;2024-01-16T06:58:02;1;1;
54869;PMS5003;40756;-37.950;145.008;2024-01-16T07:00:32;2;2;
54869;PMS5003;40756;-37.950;145.008;2024-01-16T07:03:02;1;1;
54869;PMS5003;40756;-37.950;145.008;2024-01-16T07:05:32;1;1;
54869;PMS5003;40756;-37.950;145.008;2024-01-16T07:08:01;2;2;
54869;PMS5003;40756;-37.950;145.008;2024-01-16T07:10:31;0;0;
54869;PMS5003;40756;-37.950;145.008;2024-01-16T07:13:00;1;1;
54869;PMS5003;40756;-37.950;145.008;2024-01-16T07:15:30;2;1;
54869;PMS5003;40756;-37.950;145.008;2024-01-16T07:17:59;2;2;
54869;PMS5003;40756;-37.950;145.008;2024-01-16T07:20:28;2;2;
54869;PMS5003;40756;-37.950;145.008;2024-01-16T07:22:58;1;1;
54869;PMS5003;40756;-37.950;145.008;2024-01-16T07:25:28;4;2;
54869;PMS5003;40756;-37.950;145.008;2024-01-16T07:27:57;1;1;
54869;PMS5003;40756;-37.950;145.008;2024-01-16T07:30:26;2;2;
54869;PMS5003;40756;-37.950;145.008;2024-01-16T07:32:55;1;1;
54869;PMS5003;40756;-37.950;145.008;2024-01-16T07:35:25;3;3;
54869;PMS5003;40756;-37.950;145.008;2024-01-16T07:37:54;0;0;
54869;PMS5003;40756;-37.950;145.008;2024-01-16T07:40:23;1;1;
54869;PMS5003;40756;-37.950;145.008;2024-01-16T07:42:53;3;2;
54869;PMS5003;40756;-37.950;145.008;2024-01-16T07:45:23;2;1;
54869;PMS5003;40756;-37.950;145.008;2024-01-16T07:47:52;1;1;
54869;PMS5003;40756;-37.950;145.008;2024-01-16T07:50:21;2;2;
54869;PMS5003;40756;-37.950;145.008;2024-01-16T07:52:50;3;2;
54869;PMS5003;40756;-37.950;145.008;2024-01-16T07:55:19;2;2;
54869;PMS5003;40756;-37.950;145.008;2024-01-16T07:57:48;1;1;
54869;PMS5003;40756;-37.950;145.008;2024-01-16T08:00:18;0;0;
54869;PMS5003;40756;-37.950;145.008;2024-01-16T08:02:48;2;2;
54869;PMS5003;40756;-37.950;145.008;2024-01-16T08:05:17;2;2;
54869;PMS5003;40756;-37.950;145.008;2024-01-16T08:07:46;2;2;
54869;PMS5003;40756;-37.950;145.008;2024-01-16T08:10:15;3;2;
54869;PMS5003;40756;-37.950;145.008;2024-01-16T08:12:44;2;2;
54869;PMS5003;40756;-37.950;145.008;2024-01-16T08:15:14;1;1;
54869;PMS5003;40756;-37.950;145.008;2024-01-16T08:17:43;1;1;
54869;PMS5003;40756;-37.950;145.008;2024-01-16T08:20:13;2;2;
54869;PMS5003;40756;-37.950;145.008;2024-01-16T08:22:42;1;1;
54869;PMS5003;40756;-37.950;145.008;2024-01-16T08:25:12;0;0;
54869;PMS5003;40756;-37.950;145.008;2024-01-16T08:27:41;2;2;
54869;PMS5003;40756;-37.950;145.008;2024-01-16T08:30:11;2;2;
54869;PMS5003;40756;-37.950;145.008;2024-01-16T08:32:41;1;1;
54869;PMS5003;40756;-37.950;145.008;2024-01-16T08:35:11;2;2;
54869;PMS5003;40756;-37.950;145.008;2024-01-16T08:37:41;2;2;
54869;PMS5003;40756;-37.950;145.008;2024-01-16T08:40:11;2;2;
54869;PMS5003;40756;-37.950;145.008;2024-01-16T08:42:40;1;1;
54869;PMS5003;40756;-37.950;145.008;2024-01-16T08:45:10;1;1;
54869;PMS5003;40756;-37.950;145.008;2024-01-16T08:47:39;2;2;
54869;PMS5003;40756;-37.950;145.008;2024-01-16T08:50:08;2;2;
54869;PMS5003;40756;-37.950;145.008;2024-01-16T08:52:37;2;2;
54869;PMS5003;40756;-37.950;145.008;2024-01-16T08:55:07;0;0;
54869;PMS5003;40756;-37.950;145.008;2024-01-16T08:57:37;2;2;
54869;PMS5003;40756;-37.950;145.008;2024-01-16T09:00:08;4;4;
54869;PMS5003;40756;-37.950;145.008;2024-01-16T09:02:38;2;2;
54869;PMS5003;40756;-37.950;145.008;2024-01-16T09:05:08;2;2;
54869;PMS5003;40756;-37.950;145.008;2024-01-16T09:07:38;1;1;
54869;PMS5003;40756;-37.950;145.008;2024-01-16T09:10:07;1;1;
54869;PMS5003;40756;-37.950;145.008;2024-01-16T09:12:37;1;1;
54869;PMS5003;40756;-37.950;145.008;2024-01-16T09:15:07;2;2;
54869;PMS5003;40756;-37.950;145.008;2024-01-16T09:17:37;2;2;
54869;PMS5003;40756;-37.950;145.008;2024-01-16T09:20:07;2;2;
54869;PMS5003;40756;-37.950;145.008;2024-01-16T09:22:37;0;0;
54869;PMS5003;40756;-37.950;145.008;2024-01-16T09:25:07;2;2;
54869;PMS5003;40756;-37.950;145.008;2024-01-16T09:27:36;1;1;
54869;PMS5003;40756;-37.950;145.008;2024-01-16T09:30:07;1;1;
54869;PMS5003;40756;-37.950;145.008;2024-01-16T09:32:37;1;1;
54869;PMS5003;40756;-37.950;145.008;2024-01-16T09:35:07;0;0;
54869;PMS5003;40756;-37.950;145.008;2024-01-16T09:37:37;2;2;
54869;PMS5003;40756;-37.950;145.008;2024-01-16T09:40:07;0;0;
54869;PMS5003;40756;-37.950;145.008;2024-01-16T09:42:37;1;1;
54869;PMS5003;40756;-37.950;145.008;2024-01-16T09:45:06;1;1;
54869;PMS5003;40756;-37.950;145.008;2024-01-16T09:47:38;2;2;
54869;PMS5003;40756;-37.950;145.008;2024-01-16T09:50:08;1;1;
54869;PMS5003;40756;-37.950;145.008;2024-01-16T09:52:38;2;2;
54869;PMS5003;40756;-37.950;145.008;2024-01-16T09:55:08;2;1;
54869;PMS5003;40756;-37.950;145.008;2024-01-16T09:57:39;3;2;
54869;PMS5003;40756;-37.950;145.008;2024-01-16T10:00:11;3;3;
54869;PMS5003;40756;-37.950;145.008;2024-01-16T10:02:41;2;2;
54869;PMS5003;40756;-37.950;145.008;2024-01-16T10:05:12;2;2;
54869;PMS5003;40756;-37.950;145.008;2024-01-16T10:07:42;0;0;
54869;PMS5003;40756;-37.950;145.008;2024-01-16T10:10:12;2;1;
54869;PMS5003;40756;-37.950;145.008;2024-01-16T10:12:41;3;3;
54869;PMS5003;40756;-37.950;145.008;2024-01-16T10:15:11;1;1;
54869;PMS5003;40756;-37.950;145.008;2024-01-16T10:17:41;2;2;
54869;PMS5003;40756;-37.950;145.008;2024-01-16T10:20:11;1;1;
54869;PMS5003;40756;-37.950;145.008;2024-01-16T10:22:40;1;1;
54869;PMS5003;40756;-37.950;145.008;2024-01-16T10:25:19;3;3;
54869;PMS5003;40756;-37.950;145.008;2024-01-16T10:27:49;2;2;
54869;PMS5003;40756;-37.950;145.008;2024-01-16T10:30:30;1;1;
54869;PMS5003;40756;-37.950;145.008;2024-01-16T10:33:11;2;2;
54869;PMS5003;40756;-37.950;145.008;2024-01-16T10:35:42;1;1;
54869;PMS5003;40756;-37.950;145.008;2024-01-16T10:38:14;1;1;
54869;PMS5003;40756;-37.950;145.008;2024-01-16T10:40:51;3;2;
54869;PMS5003;40756;-37.950;145.008;2024-01-16T10:43:36;2;2;
54869;PMS5003;40756;-37.950;145.008;2024-01-16T10:46:07;2;2;
54869;PMS5003;40756;-37.950;145.008;2024-01-16T10:48:38;1;1;
54869;PMS5003;40756;-37.950;145.008;2024-01-16T10:51:10;1;1;
54869;PMS5003;40756;-37.950;145.008;2024-01-16T10:53:42;2;2;
54869;PMS5003;40756;-37.950;145.008;2024-01-16T10:56:12;1;1;
54869;PMS5003;40756;-37.950;145.008;2024-01-16T10:58:44;2;1;
54869;PMS5003;40756;-37.950;145.008;2024-01-16T11:01:19;2;2;
54869;PMS5003;40756;-37.950;145.008;2024-01-16T11:03:50;1;1;
54869;PMS5003;40756;-37.950;145.008;2024-01-16T11:06:21;2;2;
54869;PMS5003;40756;-37.950;145.008;2024-01-16T11:08:51;0;0;
54869;PMS5003;40756;-37.950;145.008;2024-01-16T11:11:22;3;3;
54869;PMS5003;40756;-37.950;145.008;2024-01-16T11:13:54;2;2;
54869;PMS5003;40756;-37.950;145.008;2024-01-16T11:16:25;0;0;
54869;PMS5003;40756;-37.950;145.008;2024-01-16T11:18:56;1;1;
54869;PMS5003;40756;-37.950;145.008;2024-01-16T11:21:25;1;1;
54869;PMS5003;40756;-37.950;145.008;2024-01-16T11:23:55;1;1;
54869;PMS5003;40756;-37.950;145.008;2024-01-16T11:26:26;2;1;
54869;PMS5003;40756;-37.950;145.008;2024-01-16T11:28:56;1;1;
54869;PMS5003;40756;-37.950;145.008;2024-01-16T11:31:27;0;0;
54869;PMS5003;40756;-37.950;145.008;2024-01-16T11:33:58;0;0;
54869;PMS5003;40756;-37.950;145.008;2024-01-16T11:36:46;1;0;
54869;PMS5003;40756;-37.950;145.008;2024-01-16T11:39:18;1;1;
54869;PMS5003;40756;-37.950;145.008;2024-01-16T11:41:51;2;2;
54869;PMS5003;40756;-37.950;145.008;2024-01-16T11:44:55;3;3;
54869;PMS5003;40756;-37.950;145.008;2024-01-16T11:47:25;1;1;
54869;PMS5003;40756;-37.950;145.008;2024-01-16T11:50:07;0;0;
54869;PMS5003;40756;-37.950;145.008;2024-01-16T11:52:40;0;0;
54869;PMS5003;40756;-37.950;145.008;2024-01-16T11:55:26;1;1;
54869;PMS5003;40756;-37.950;145.008;2024-01-16T11:58:02;2;2;
54869;PMS5003;40756;-37.950;145.008;2024-01-16T12:01:16;1;1;
54869;PMS5003;40756;-37.950;145.008;2024-01-16T12:03:56;1;1;
54869;PMS5003;40756;-37.950;145.008;2024-01-16T12:06:31;0;0;
54869;PMS5003;40756;-37.950;145.008;2024-01-16T12:09:11;0;0;
54869;PMS5003;40756;-37.950;145.008;2024-01-16T12:11:40;0;0;
54869;PMS5003;40756;-37.950;145.008;2024-01-16T12:14:11;1;1;
54869;PMS5003;40756;-37.950;145.008;2024-01-16T12:16:41;1;1;
54869;PMS5003;40756;-37.950;145.008;2024-01-16T12:19:10;1;1;
54869;PMS5003;40756;-37.950;145.008;2024-01-16T12:21:41;1;1;
54869;PMS5003;40756;-37.950;145.008;2024-01-16T12:24:12;0;0;
54869;PMS5003;40756;-37.950;145.008;2024-01-16T12:26:44;3;3;
54869;PMS5003;40756;-37.950;145.008;2024-01-16T12:29:14;0;0;
54869;PMS5003;40756;-37.950;145.008;2024-01-16T12:31:46;0;0;
54869;PMS5003;40756;-37.950;145.008;2024-01-16T12:34:16;0;0;
54869;PMS5003;40756;-37.950;145.008;2024-01-16T12:36:50;2;1;
54869;PMS5003;40756;-37.950;145.008;2024-01-16T12:39:33;0;0;
54869;PMS5003;40756;-37.950;145.008;2024-01-16T12:42:03;1;1;
54869;PMS5003;40756;-37.950;145.008;2024-01-16T12:44:33;1;1;
54869;PMS5003;40756;-37.950;145.008;2024-01-16T12:47:03;1;1;
54869;PMS5003;40756;-37.950;145.008;2024-01-16T12:49:33;1;1;
54869;PMS5003;40756;-37.950;145.008;2024-01-16T12:52:18;0;0;
54869;PMS5003;40756;-37.950;145.008;2024-01-16T12:54:56;1;1;
54869;PMS5003;40756;-37.950;145.008;2024-01-16T12:57:28;2;2;
54869;PMS5003;40756;-37.950;145.008;2024-01-16T12:59:57;1;1;
54869;PMS5003;40756;-37.950;145.008;2024-01-16T13:02:26;0;0;
54869;PMS5003;40756;-37.950;145.008;2024-01-16T13:04:57;0;0;
54869;PMS5003;40756;-37.950;145.008;2024-01-16T13:07:27;1;1;
54869;PMS5003;40756;-37.950;145.008;2024-01-16T13:10:12;1;1;
54869;PMS5003;40756;-37.950;145.008;2024-01-16T13:12:42;1;1;
54869;PMS5003;40756;-37.950;145.008;2024-01-16T13:15:12;0;0;
54869;PMS5003;40756;-37.950;145.008;2024-01-16T13:17:41;2;2;
54869;PMS5003;40756;-37.950;145.008;2024-01-16T13:20:10;1;1;
54869;PMS5003;40756;-37.950;145.008;2024-01-16T13:22:39;1;1;
54869;PMS5003;40756;-37.950;145.008;2024-01-16T13:25:09;1;1;
54869;PMS5003;40756;-37.950;145.008;2024-01-16T13:27:38;1;1;
54869;PMS5003;40756;-37.950;145.008;2024-01-16T13:30:08;2;1;
54869;PMS5003;40756;-37.950;145.008;2024-01-16T13:32:39;2;2;
54869;PMS5003;40756;-37.950;145.008;2024-01-16T13:35:09;1;1;
54869;PMS5003;40756;-37.950;145.008;2024-01-16T13:37:38;1;1;
54869;PMS5003;40756;-37.950;145.008;2024-01-16T13:40:07;1;1;
54869;PMS5003;40756;-37.950;145.008;2024-01-16T13:42:38;1;1;
54869;PMS5003;40756;-37.950;145.008;2024-01-16T13:45:08;1;1;
54869;PMS5003;40756;-37.950;145.008;2024-01-16T13:47:38;1;1;
54869;PMS5003;40756;-37.950;145.008;2024-01-16T13:50:07;0;0;
54869;PMS5003;40756;-37.950;145.008;2024-01-16T13:52:37;0;0;
54869;PMS5003;40756;-37.950;145.008;2024-01-16T13:55:07;2;1;
54869;PMS5003;40756;-37.950;145.008;2024-01-16T13:57:37;2;1;
54869;PMS5003;40756;-37.950;145.008;2024-01-16T14:00:07;1;1;
54869;PMS5003;40756;-37.950;145.008;2024-01-16T14:02:39;1;1;
54869;PMS5003;40756;-37.950;145.008;2024-01-16T14:05:09;0;0;
54869;PMS5003;40756;-37.950;145.008;2024-01-16T14:07:40;0;0;
54869;PMS5003;40756;-37.950;145.008;2024-01-16T14:10:10;0;0;
54869;PMS5003;40756;-37.950;145.008;2024-01-16T14:12:39;1;1;
54869;PMS5003;40756;-37.950;145.008;2024-01-16T14:15:11;0;0;
54869;PMS5003;40756;-37.950;145.008;2024-01-16T14:17:42;0;0;
54869;PMS5003;40756;-37.950;145.008;2024-01-16T14:20:12;2;1;
54869;PMS5003;40756;-37.950;145.008;2024-01-16T14:22:43;1;0;
54869;PMS5003;40756;-37.950;145.008;2024-01-16T14:25:12;0;0;
54869;PMS5003;40756;-37.950;145.008;2024-01-16T14:27:43;0;0;
54869;PMS5003;40756;-37.950;145.008;2024-01-16T14:30:15;0;0;
54869;PMS5003;40756;-37.950;145.008;2024-01-16T14:32:45;0;0;
54869;PMS5003;40756;-37.950;145.008;2024-01-16T14:35:15;0;0;
54869;PMS5003;40756;-37.950;145.008;2024-01-16T14:37:44;1;1;
54869;PMS5003;40756;-37.950;145.008;2024-01-16T14:40:13;0;0;
54869;PMS5003;40756;-37.950;145.008;2024-01-16T14:42:43;0;0;
54869;PMS5003;40756;-37.950;145.008;2024-01-16T14:45:13;0;0;
54869;PMS5003;40756;-37.950;145.008;2024-01-16T14:47:42;0;0;
54869;PMS5003;40756;-37.950;145.008;2024-01-16T14:50:11;1;1;
54869;PMS5003;40756;-37.950;145.008;2024-01-16T14:52:41;0;0;
54869;PMS5003;40756;-37.950;145.008;2024-01-16T14:55:11;0;0;
54869;PMS5003;40756;-37.950;145.008;2024-01-16T14:57:40;1;1;
54869;PMS5003;40756;-37.950;145.008;2024-01-16T15:00:10;1;0;
54869;PMS5003;40756;-37.950;145.008;2024-01-16T15:02:41;0;0;
54869;PMS5003;40756;-37.950;145.008;2024-01-16T15:05:10;0;0;
54869;PMS5003;40756;-37.950;145.008;2024-01-16T15:07:39;2;2;
54869;PMS5003;40756;-37.950;145.008;2024-01-16T15:10:09;3;3;
54869;PMS5003;40756;-37.950;145.008;2024-01-16T15:12:39;3;3;
54869;PMS5003;40756;-37.950;145.008;2024-01-16T15:15:09;5;5;
54869;PMS5003;40756;-37.950;145.008;2024-01-16T15:17:39;10;10;
54869;PMS5003;40756;-37.950;145.008;2024-01-16T15:20:10;12;12;
54869;PMS5003;40756;-37.950;145.008;2024-01-16T15:22:40;11;11;
54869;PMS5003;40756;-37.950;145.008;2024-01-16T15:25:11;11;11;
54869;PMS5003;40756;-37.950;145.008;2024-01-16T15:27:41;33;32;
54869;PMS5003;40756;-37.950;145.008;2024-01-16T15:30:11;16;16;
54869;PMS5003;40756;-37.950;145.008;2024-01-16T15:32:41;14;14;
54869;PMS5003;40756;-37.950;145.008;2024-01-16T15:35:10;19;19;
54869;PMS5003;40756;-37.950;145.008;2024-01-16T15:37:40;52;52;
54869;PMS5003;40756;-37.950;145.008;2024-01-16T15:40:10;53;53;
54869;PMS5003;40756;-37.950;145.008;2024-01-16T15:42:39;45;45;
54869;PMS5003;40756;-37.950;145.008;2024-01-16T15:45:09;53;53;
54869;PMS5003;40756;-37.950;145.008;2024-01-16T15:47:39;7;7;
54869;PMS5003;40756;-37.950;145.008;2024-01-16T15:50:08;12;12;
54869;PMS5003;40756;-37.950;145.008;2024-01-16T15:52:38;9;9;
54869;PMS5003;40756;-37.950;145.008;2024-01-16T15:55:07;5;5;
54869;PMS5003;40756;-37.950;145.008;2024-01-16T15:57:36;6;6;
54869;PMS5003;40756;-37.950;145.008;2024-01-16T16:03:09;8;8;
54869;PMS5003;40756;-37.950;145.008;2024-01-16T16:05:39;7;7;
54869;PMS5003;40756;-37.950;145.008;2024-01-16T16:08:08;6;6;
54869;PMS5003;40756;-37.950;145.008;2024-01-16T16:10:38;9;9;
54869;PMS5003;40756;-37.950;145.008;2024-01-16T16:13:08;9;9;
54869;PMS5003;40756;-37.950;145.008;2024-01-16T16:15:39;10;10;
54869;PMS5003;40756;-37.950;145.008;2024-01-16T16:18:08;11;11;
54869;PMS5003;40756;-37.950;145.008;2024-01-16T16:20:37;11;11;
54869;PMS5003;40756;-37.950;145.008;2024-01-16T16:23:07;8;8;
54869;PMS5003;40756;-37.950;145.008;2024-01-16T16:25:36;10;10;